createdAt,value
2018-09-13T00:02:27.226Z,2.90
2018-09-13T00:04:55.337Z,3.30
2018-09-13T00:07:23.405Z,3.50
2018-09-13T00:09:51.464Z,2.97
2018-09-13T00:12:19.557Z,3.00
2018-09-13T00:14:47.668Z,3.13
2018-09-13T00:17:15.742Z,3.53
2018-09-13T00:19:43.836Z,3.07
2018-09-13T00:22:11.912Z,3.70
2018-09-13T00:24:40.021Z,3.10
2018-09-13T00:27:08.108Z,2.73
2018-09-13T00:29:36.224Z,3.00
2018-09-13T00:32:04.371Z,3.13
2018-09-13T00:34:32.482Z,2.93
2018-09-13T00:37:00.613Z,2.93
2018-09-13T00:39:28.752Z,4.00
2018-09-13T00:41:56.865Z,2.80
2018-09-13T00:44:24.936Z,3.23
2018-09-13T00:46:53.013Z,3.00
2018-09-13T00:49:21.088Z,3.17
2018-09-13T00:51:49.161Z,3.70
2018-09-13T00:54:17.220Z,3.23
2018-09-13T00:56:45.298Z,3.73
2018-09-13T00:59:13.401Z,3.03
2018-09-13T01:01:41.481Z,3.50
2018-09-13T01:04:09.553Z,3.70
2018-09-13T01:06:37.664Z,3.73
2018-09-13T01:09:08.062Z,3.20
2018-09-13T01:11:36.161Z,3.50
2018-09-13T01:14:04.240Z,3.23
2018-09-13T01:16:32.434Z,3.10
2018-09-13T01:19:00.576Z,3.60
2018-09-13T01:21:28.698Z,3.30
2018-09-13T01:23:56.770Z,3.53
2018-09-13T01:26:24.820Z,3.30
2018-09-13T01:28:52.924Z,3.33
2018-09-13T01:31:21.025Z,2.90
2018-09-13T01:33:49.104Z,3.07
2018-09-13T01:36:17.212Z,3.40
2018-09-13T01:38:45.282Z,3.00
2018-09-13T01:41:13.440Z,3.30
2018-09-13T01:43:41.512Z,3.60
2018-09-13T01:46:09.632Z,2.97
2018-09-13T01:48:37.716Z,3.60
2018-09-13T01:51:05.922Z,3.00
2018-09-13T01:53:34.049Z,3.10
2018-09-13T01:56:02.150Z,3.10
2018-09-13T01:58:30.294Z,3.07
2018-09-13T02:00:58.418Z,3.60
2018-09-13T02:03:26.543Z,3.57
2018-09-13T02:05:54.598Z,3.30
2018-09-13T02:08:22.669Z,2.97
2018-09-13T02:10:50.748Z,3.13
2018-09-13T02:13:18.811Z,3.40
2018-09-13T02:15:46.924Z,3.47
2018-09-13T02:18:15.024Z,3.50
2018-09-13T02:20:43.196Z,3.00
2018-09-13T02:23:11.397Z,3.40
2018-09-13T02:25:39.490Z,3.37
2018-09-13T02:28:07.554Z,3.33
2018-09-13T02:30:35.665Z,2.90
2018-09-13T02:33:03.760Z,3.80
2018-09-13T02:35:31.882Z,3.20
2018-09-13T02:37:59.996Z,3.00
2018-09-13T02:40:28.081Z,3.80
2018-09-13T02:42:56.253Z,3.00
2018-09-13T02:45:24.347Z,3.30
2018-09-13T02:47:52.413Z,3.73
2018-09-13T02:50:20.531Z,3.50
2018-09-13T02:52:48.592Z,3.60
2018-09-13T02:55:16.667Z,3.93
2018-09-13T02:57:44.764Z,3.67
2018-09-13T03:00:12.849Z,3.97
2018-09-13T03:02:40.929Z,4.20
2018-09-13T03:05:09.004Z,4.57
2018-09-13T03:07:37.109Z,4.07
2018-09-13T03:10:05.270Z,4.20
2018-09-13T03:12:33.533Z,3.80
2018-09-13T03:15:01.684Z,3.50
2018-09-13T03:17:29.829Z,3.50
2018-09-13T03:19:57.947Z,12.40
2018-09-13T03:22:26.025Z,3.47
2018-09-13T03:24:54.098Z,3.70
2018-09-13T03:27:22.166Z,3.57
2018-09-13T03:29:50.277Z,3.20
2018-09-13T03:32:18.337Z,3.10
2018-09-13T03:34:46.544Z,3.83
2018-09-13T03:37:14.575Z,3.53
2018-09-13T03:39:42.649Z,3.57
2018-09-13T03:42:10.810Z,3.50
2018-09-13T03:44:38.807Z,4.20
2018-09-13T03:47:06.861Z,3.53
2018-09-13T03:49:35.024Z,4.10
2018-09-13T03:52:03.184Z,3.60
2018-09-13T03:54:31.486Z,4.67
2018-09-13T03:56:59.624Z,3.60
2018-09-13T03:59:27.709Z,3.40
2018-09-13T04:01:55.804Z,4.00
2018-09-13T04:04:23.950Z,5.50
2018-09-13T04:06:52.016Z,4.13
2018-09-13T04:09:20.145Z,3.77
2018-09-13T04:11:48.161Z,3.80
2018-09-13T04:14:16.283Z,4.37
2018-09-13T04:16:44.396Z,4.57
2018-09-13T04:19:12.542Z,4.20
2018-09-13T04:21:40.653Z,4.17
2018-09-13T04:24:08.740Z,4.40
2018-09-13T04:26:36.869Z,5.27
2018-09-13T04:29:04.998Z,4.40
2018-09-13T04:31:33.124Z,5.47
2018-09-13T04:34:01.333Z,6.53
2018-09-13T04:36:29.550Z,5.23
2018-09-13T04:38:57.638Z,5.37
2018-09-13T04:41:25.737Z,5.20
2018-09-13T04:43:53.792Z,6.23
2018-09-13T04:46:21.875Z,5.10
2018-09-13T04:48:50.024Z,5.97
2018-09-13T04:51:18.130Z,6.07
2018-09-13T04:53:46.197Z,7.07
2018-09-13T04:56:14.275Z,5.87
2018-09-13T04:58:42.350Z,6.40
2018-09-13T05:01:10.464Z,7.37
2018-09-13T05:03:38.577Z,9.27
2018-09-13T05:06:06.687Z,9.17
2018-09-13T05:08:34.824Z,7.27
2018-09-13T05:11:02.976Z,8.60
2018-09-13T05:13:31.170Z,8.43
2018-09-13T05:15:59.424Z,7.87
2018-09-13T05:18:27.600Z,8.00
2018-09-13T05:20:55.744Z,8.60
2018-09-13T05:23:23.844Z,8.40
2018-09-13T05:25:51.953Z,8.80
2018-09-13T05:28:20.044Z,8.63
2018-09-13T05:30:48.196Z,8.73
2018-09-13T05:33:16.281Z,8.80
2018-09-13T05:35:44.408Z,8.53
2018-09-13T05:38:12.504Z,8.70
2018-09-13T05:40:40.581Z,9.13
2018-09-13T05:43:08.685Z,8.63
2018-09-13T05:45:36.900Z,8.23
2018-09-13T05:48:05.008Z,8.60
2018-09-13T05:50:33.384Z,9.20
2018-09-13T05:53:01.636Z,8.93
2018-09-13T05:55:29.806Z,9.70
2018-09-13T05:57:57.973Z,9.13
2018-09-13T06:00:26.083Z,9.33
2018-09-13T06:02:54.188Z,8.90
2018-09-13T06:05:22.336Z,8.77
2018-09-13T06:07:50.458Z,9.20
2018-09-13T06:10:19.374Z,9.60
2018-09-13T06:12:47.461Z,9.20
2018-09-13T06:15:15.557Z,9.27
2018-09-13T06:17:43.990Z,9.43
2018-09-13T06:20:12.149Z,9.60
2018-09-13T06:22:40.230Z,8.97
2018-09-13T06:25:08.360Z,9.20
2018-09-13T06:27:36.469Z,10.07
2018-09-13T06:30:04.632Z,9.37
2018-09-13T06:32:32.777Z,9.17
2018-09-13T06:35:01.030Z,9.83
2018-09-13T06:37:29.127Z,9.73
2018-09-13T06:39:57.228Z,10.10
2018-09-13T06:42:25.374Z,9.93
2018-09-13T06:44:53.381Z,10.27
2018-09-13T06:47:21.461Z,9.10
2018-09-13T06:49:49.556Z,9.23
2018-09-13T06:52:17.636Z,8.27
2018-09-13T06:54:45.736Z,8.73
2018-09-13T06:57:13.816Z,8.50
2018-09-13T06:59:41.901Z,8.50
2018-09-13T07:02:09.997Z,8.33
2018-09-13T07:04:38.068Z,8.30
2018-09-13T07:07:06.154Z,8.10
2018-09-13T07:09:34.400Z,6.40
2018-09-13T07:12:02.540Z,6.23
2018-09-13T07:14:30.669Z,7.10
2018-09-13T07:16:59.279Z,6.20
2018-09-13T07:19:27.449Z,5.77
2018-09-13T07:21:55.541Z,5.90
2018-09-13T07:24:23.601Z,6.20
2018-09-13T07:26:51.712Z,6.00
2018-09-13T07:29:19.769Z,5.90
2018-09-13T07:31:47.879Z,5.03
2018-09-13T07:34:16.087Z,4.63
2018-09-13T07:36:44.282Z,4.50
2018-09-13T07:39:13.432Z,5.37
2018-09-13T07:41:41.513Z,5.80
2018-09-13T07:44:09.598Z,4.70
2018-09-13T07:46:37.723Z,4.77
2018-09-13T07:49:05.886Z,4.90
2018-09-13T07:54:08.540Z,5.23
2018-09-13T07:56:36.613Z,4.70
2018-09-13T07:59:05.239Z,5.63
2018-09-13T08:01:33.353Z,4.53
2018-09-13T08:04:01.492Z,4.20
2018-09-13T08:06:29.794Z,4.30
2018-09-13T08:08:57.911Z,4.63
2018-09-13T08:11:26.023Z,3.30
2018-09-13T08:13:54.088Z,3.37
2018-09-13T08:16:22.188Z,3.67
2018-09-13T08:18:50.285Z,3.60
2018-09-13T08:21:18.448Z,3.27
2018-09-13T08:23:46.469Z,3.17
2018-09-13T08:26:14.553Z,2.63
2018-09-13T08:28:42.652Z,2.63
2018-09-13T08:31:10.765Z,3.23
2018-09-13T08:33:38.836Z,3.50
2018-09-13T08:36:06.935Z,3.50
2018-09-13T08:38:35.116Z,3.27
2018-09-13T08:41:03.466Z,3.40
2018-09-13T08:43:31.636Z,3.23
2018-09-13T08:45:59.764Z,4.63
2018-09-13T08:48:27.841Z,3.93
2018-09-13T08:50:55.938Z,3.20
2018-09-13T08:53:24.069Z,3.47
2018-09-13T08:58:26.732Z,3.30
2018-09-13T09:00:54.805Z,3.20
2018-09-13T09:03:22.903Z,2.87
2018-09-13T09:05:51.023Z,3.30
2018-09-13T09:08:19.085Z,3.80
2018-09-13T09:10:47.189Z,3.20
2018-09-13T09:13:15.284Z,4.03
2018-09-13T09:15:43.423Z,3.03
2018-09-13T09:18:11.520Z,3.33
2018-09-13T09:20:39.605Z,3.23
2018-09-13T09:23:07.737Z,3.23
2018-09-13T09:25:35.857Z,3.07
2018-09-13T09:28:03.992Z,3.63
2018-09-13T09:30:32.105Z,3.40
2018-09-13T09:33:00.286Z,2.93
2018-09-13T09:35:28.345Z,3.57
2018-09-13T09:37:56.465Z,3.23
2018-09-13T09:40:24.603Z,2.67
2018-09-13T09:42:52.657Z,3.03
2018-09-13T09:45:20.728Z,3.20
2018-09-13T09:47:48.845Z,3.50
2018-09-13T09:50:17.078Z,2.97
2018-09-13T09:52:45.101Z,3.10
2018-09-13T09:55:13.170Z,2.83
2018-09-13T09:57:42.848Z,3.27
2018-09-13T10:00:10.933Z,3.00
2018-09-13T10:02:39.010Z,3.17
2018-09-13T10:05:07.072Z,2.87
2018-09-13T10:07:35.300Z,2.27
2018-09-13T10:10:03.479Z,5.87
2018-09-13T10:12:31.655Z,3.20
2018-09-13T10:15:05.202Z,3.10
2018-09-13T10:17:38.805Z,3.27
2018-09-13T10:20:12.448Z,3.10
2018-09-13T10:22:46.140Z,3.20
2018-09-13T10:25:19.649Z,3.30
2018-09-13T10:27:53.293Z,3.30
2018-09-13T10:30:26.806Z,3.00
2018-09-13T10:33:00.489Z,3.20
2018-09-13T10:35:34.022Z,3.43
2018-09-13T10:38:07.464Z,3.10
2018-09-13T10:40:41.245Z,2.90
2018-09-13T10:43:14.748Z,3.23
2018-09-13T10:45:48.202Z,3.00
2018-09-13T10:48:32.341Z,3.30
2018-09-13T10:51:09.891Z,2.90
2018-09-13T10:53:44.753Z,3.57
2018-09-13T10:56:12.909Z,3.40
2018-09-13T10:58:41.000Z,3.30
2018-09-13T11:01:09.120Z,2.67
2018-09-13T11:03:37.204Z,3.23
2018-09-13T11:06:05.339Z,3.30
2018-09-13T11:08:33.564Z,3.10
2018-09-13T11:11:01.857Z,2.90
2018-09-13T11:13:38.173Z,3.30
2018-09-13T11:16:06.292Z,2.90
2018-09-13T11:18:34.409Z,3.00
2018-09-13T11:21:02.722Z,3.07
2018-09-13T11:23:31.064Z,3.60
2018-09-13T11:25:59.200Z,3.40
2018-09-13T11:28:27.312Z,2.80
2018-09-13T11:31:00.857Z,3.30
2018-09-13T11:33:29.895Z,3.20
2018-09-13T11:35:58.245Z,4.03
2018-09-13T11:38:26.342Z,3.70
2018-09-13T11:40:54.794Z,3.80
2018-09-13T11:43:22.700Z,2.93
2018-09-13T11:45:50.793Z,3.70
2018-09-13T11:48:18.868Z,1.97
2018-09-13T11:50:46.966Z,2.90
2018-09-13T11:53:15.057Z,3.10
2018-09-13T11:55:44.269Z,2.67
2018-09-13T11:58:13.880Z,3.37
2018-09-13T12:00:42.176Z,2.90
2018-09-13T12:03:10.584Z,3.03
2018-09-13T12:05:38.741Z,3.57
2018-09-13T12:08:06.985Z,3.97
2018-09-13T12:10:35.172Z,3.30
2018-09-13T12:13:03.329Z,2.90
2018-09-13T12:15:31.969Z,3.17
2018-09-13T12:18:00.195Z,3.50
2018-09-13T12:20:28.416Z,3.20
2018-09-13T12:22:56.488Z,2.90
2018-09-13T12:25:24.546Z,3.03
2018-09-13T12:27:52.614Z,3.17
2018-09-13T12:30:20.729Z,5.80
2018-09-13T12:32:48.870Z,3.67
2018-09-13T12:35:16.973Z,3.90
2018-09-13T12:37:45.113Z,3.03
2018-09-13T12:40:13.220Z,3.00
2018-09-13T12:42:41.349Z,2.97
2018-09-13T12:45:10.152Z,3.07
2018-09-13T12:47:38.254Z,3.47
2018-09-13T12:50:06.805Z,3.03
2018-09-13T12:52:34.932Z,3.10
2018-09-13T12:55:03.105Z,3.10
2018-09-13T12:57:31.244Z,2.30
2018-09-13T12:59:59.746Z,3.23
2018-09-13T13:02:27.904Z,3.03
2018-09-13T13:04:56.018Z,2.10
2018-09-13T13:07:24.088Z,2.50
2018-09-13T13:09:52.212Z,2.73
2018-09-13T13:12:20.299Z,2.83
2018-09-13T13:14:48.372Z,3.47
2018-09-13T13:17:16.476Z,2.87
2018-09-13T13:19:44.592Z,2.80
2018-09-13T13:22:12.678Z,3.10
2018-09-13T13:24:40.916Z,3.03
2018-09-13T13:27:09.083Z,3.20
2018-09-13T13:29:37.529Z,2.83
2018-09-13T13:32:05.725Z,3.90
2018-09-13T13:34:33.988Z,3.37
2018-09-13T13:37:02.258Z,3.40
2018-09-13T13:39:30.934Z,3.27
2018-09-13T13:41:59.207Z,2.80
2018-09-13T13:44:27.290Z,3.30
2018-09-13T13:46:55.384Z,2.97
2018-09-13T13:49:23.543Z,3.20
2018-09-13T13:51:51.704Z,2.93
2018-09-13T13:54:19.788Z,2.67
2018-09-13T13:56:47.919Z,3.50
2018-09-13T13:59:16.000Z,4.10
2018-09-13T14:01:44.089Z,3.43
2018-09-13T14:04:12.178Z,4.40
2018-09-13T14:06:40.323Z,3.27
2018-09-13T14:09:15.248Z,3.27
2018-09-13T14:11:43.344Z,3.63
2018-09-13T14:14:11.473Z,2.23
2018-09-13T14:16:39.556Z,3.13
2018-09-13T14:19:07.804Z,3.17
2018-09-13T14:21:35.983Z,3.00
2018-09-13T14:24:04.610Z,2.40
2018-09-13T14:26:32.872Z,3.80
2018-09-13T14:29:01.144Z,2.87
2018-09-13T14:31:29.522Z,3.07
2018-09-13T14:33:57.613Z,3.10
2018-09-13T14:36:25.797Z,2.60
2018-09-13T14:38:53.868Z,2.63
2018-09-13T14:41:21.980Z,2.60
2018-09-13T14:43:50.082Z,3.50
2018-09-13T14:46:18.185Z,3.20
2018-09-13T14:48:46.257Z,3.07
2018-09-13T14:51:14.364Z,3.20
2018-09-13T14:53:42.507Z,2.90
2018-09-13T14:56:10.613Z,2.87
2018-09-13T14:58:38.873Z,2.70
2018-09-13T15:01:07.216Z,2.63
2018-09-13T15:03:35.336Z,3.37
2018-09-13T15:06:03.531Z,2.80
2018-09-13T15:08:32.101Z,2.50
2018-09-13T15:11:00.433Z,2.60
2018-09-13T15:13:28.582Z,2.97
2018-09-13T15:15:56.786Z,3.50
2018-09-13T15:18:24.855Z,2.90
2018-09-13T15:20:52.950Z,3.60
2018-09-13T15:23:21.024Z,2.87
2018-09-13T15:25:49.252Z,2.90
2018-09-13T15:28:17.325Z,3.13
2018-09-13T15:30:45.401Z,3.13
2018-09-13T15:33:13.685Z,3.40
2018-09-13T15:35:41.796Z,3.07
2018-09-13T15:38:09.893Z,2.90
2018-09-13T15:40:37.981Z,3.40
2018-09-13T15:43:06.174Z,3.30
2018-09-13T15:45:34.611Z,3.10
2018-09-13T15:48:02.744Z,3.30
2018-09-13T15:50:31.010Z,2.83
2018-09-13T15:52:59.268Z,3.27
2018-09-13T15:55:27.429Z,3.30
2018-09-13T15:57:55.965Z,2.90
2018-09-13T16:00:24.072Z,3.50
2018-09-13T16:02:52.134Z,3.47
2018-09-13T16:05:20.364Z,3.30
2018-09-13T16:07:48.436Z,3.13
2018-09-13T16:10:16.500Z,3.80
2018-09-13T16:12:44.646Z,2.87
2018-09-13T16:15:12.654Z,2.67
2018-09-13T16:17:40.725Z,3.97
2018-09-13T16:20:08.879Z,2.97
2018-09-13T16:22:36.983Z,3.17
2018-09-13T16:25:05.205Z,2.90
2018-09-13T16:27:33.476Z,3.33
2018-09-13T16:30:01.852Z,2.80
2018-09-13T16:32:31.098Z,3.00
2018-09-13T16:35:00.012Z,2.87
2018-09-13T16:37:33.585Z,2.67
2018-09-13T16:40:10.310Z,3.07
2018-09-13T16:42:51.472Z,2.87
2018-09-13T16:45:19.988Z,3.10
2018-09-13T16:47:53.556Z,4.60
2018-09-13T16:50:21.590Z,3.10
2018-09-13T16:52:49.698Z,2.90
2018-09-13T16:55:17.780Z,2.83
2018-09-13T16:57:45.876Z,2.87
2018-09-13T17:00:13.956Z,3.00
2018-09-13T17:02:42.037Z,2.60
2018-09-13T17:05:10.138Z,2.13
2018-09-13T17:07:38.337Z,2.43
2018-09-13T17:10:06.813Z,2.77
2018-09-13T17:12:35.035Z,3.10
2018-09-13T17:15:03.292Z,2.67
2018-09-13T17:17:31.540Z,3.10
2018-09-13T17:19:59.785Z,3.13
2018-09-13T17:22:27.954Z,2.70
2018-09-13T17:24:56.448Z,3.50
2018-09-13T17:27:24.439Z,4.33
2018-09-13T17:29:52.543Z,5.27
2018-09-13T17:32:20.600Z,3.87
2018-09-13T17:34:48.685Z,3.27
2018-09-13T17:37:16.754Z,3.20
2018-09-13T17:39:44.828Z,3.50
2018-09-13T17:42:12.953Z,2.90
2018-09-13T17:44:41.024Z,3.53
2018-09-13T17:47:09.106Z,3.20
2018-09-13T17:49:37.204Z,3.70
2018-09-13T17:52:05.398Z,3.30
2018-09-13T17:54:33.557Z,3.67
2018-09-13T17:57:01.826Z,3.70
2018-09-13T17:59:29.979Z,3.53
2018-09-13T18:01:58.085Z,4.10
2018-09-13T18:04:26.179Z,3.80
2018-09-13T18:06:54.267Z,3.20
2018-09-13T18:09:22.355Z,3.47
2018-09-13T18:11:50.473Z,3.70
2018-09-13T18:14:18.532Z,4.03
2018-09-13T18:16:46.628Z,3.80
2018-09-13T18:19:14.701Z,3.90
2018-09-13T18:21:42.776Z,3.33
2018-09-13T18:24:10.955Z,3.73
2018-09-13T18:26:39.007Z,3.03
2018-09-13T18:29:07.084Z,3.30
2018-09-13T18:31:35.218Z,3.63
2018-09-13T18:34:03.305Z,3.50
2018-09-13T18:36:31.493Z,4.60
2018-09-13T18:38:59.583Z,3.50
2018-09-13T18:41:27.745Z,2.90
2018-09-13T18:43:55.819Z,3.27
2018-09-13T18:46:23.897Z,3.20
2018-09-13T18:48:51.972Z,3.17
2018-09-13T18:51:20.086Z,3.17
2018-09-13T18:53:48.223Z,3.73
2018-09-13T18:56:16.208Z,2.97
2018-09-13T18:58:44.324Z,3.20
2018-09-13T19:01:12.405Z,3.30
2018-09-13T19:03:40.495Z,3.33
2018-09-13T19:06:08.565Z,2.93
2018-09-13T19:08:36.721Z,3.00
2018-09-13T19:11:04.907Z,3.63
2018-09-13T19:13:32.992Z,3.07
2018-09-13T19:16:01.176Z,4.20
2018-09-13T19:18:29.359Z,3.67
2018-09-13T19:20:57.444Z,3.30
2018-09-13T19:23:25.519Z,3.37
2018-09-13T19:25:53.614Z,3.10
2018-09-13T19:28:21.728Z,3.27
2018-09-13T19:30:49.797Z,3.83
2018-09-13T19:33:17.918Z,3.40
2018-09-13T19:35:46.029Z,4.20
2018-09-13T19:38:14.045Z,3.47
2018-09-13T19:40:42.136Z,11.03
2018-09-13T19:43:10.213Z,4.50
2018-09-13T19:45:38.364Z,3.20
2018-09-13T19:48:06.466Z,3.30
2018-09-13T19:50:34.608Z,3.67
2018-09-13T19:53:02.724Z,3.43
2018-09-13T19:55:30.896Z,3.30
2018-09-13T19:57:58.987Z,3.60
2018-09-13T20:00:27.080Z,4.20
2018-09-13T20:02:55.934Z,4.33
2018-09-13T20:05:24.145Z,3.80
2018-09-13T20:07:52.236Z,3.63
2018-09-13T20:10:20.352Z,3.33
2018-09-13T20:12:48.413Z,3.50
2018-09-13T20:15:16.549Z,3.80
2018-09-13T20:17:44.663Z,3.40
2018-09-13T20:20:12.804Z,3.23
2018-09-13T20:22:40.863Z,3.47
2018-09-13T20:25:08.952Z,3.30
2018-09-13T20:27:37.111Z,3.43
2018-09-13T20:30:06.161Z,3.00
2018-09-13T20:32:34.274Z,3.70
2018-09-13T20:35:02.494Z,3.57
2018-09-13T20:37:30.588Z,2.90
2018-09-13T20:39:58.748Z,3.80
2018-09-13T20:42:26.866Z,3.63
2018-09-13T20:44:54.968Z,3.73
2018-09-13T20:47:23.045Z,4.03
2018-09-13T20:49:51.120Z,3.57
2018-09-13T20:52:19.260Z,3.47
2018-09-13T20:54:47.378Z,4.07
2018-09-13T20:57:15.494Z,3.67
2018-09-13T20:59:43.544Z,3.77
2018-09-13T21:02:11.633Z,3.37
2018-09-13T21:04:39.713Z,3.93
2018-09-13T21:07:07.944Z,4.03
2018-09-13T21:09:36.016Z,3.83
2018-09-13T21:12:04.159Z,4.00
2018-09-13T21:14:32.274Z,3.90
2018-09-13T21:17:00.479Z,3.83
2018-09-13T21:19:28.574Z,4.13
2018-09-13T21:21:56.661Z,4.30
2018-09-13T21:24:24.812Z,4.10
2018-09-13T21:26:52.892Z,4.30
2018-09-13T21:29:21.193Z,4.37
2018-09-13T21:31:49.274Z,4.73
2018-09-13T21:34:17.476Z,4.73
2018-09-13T21:36:45.569Z,4.50
2018-09-13T21:39:13.657Z,4.37
2018-09-13T21:41:41.826Z,3.50
2018-09-13T21:44:09.943Z,3.53
2018-09-13T21:46:38.009Z,4.20
2018-09-13T21:49:06.080Z,3.90
2018-09-13T21:51:34.200Z,4.33
2018-09-13T21:54:02.320Z,4.20
2018-09-13T21:56:30.467Z,4.47
2018-09-13T21:58:58.590Z,4.13
2018-09-13T22:01:26.652Z,4.40
2018-09-13T22:03:54.735Z,4.37
2018-09-13T22:06:22.800Z,4.17
2018-09-13T22:08:50.926Z,4.23
2018-09-13T22:11:19.046Z,4.00
2018-09-13T22:13:47.077Z,3.90
2018-09-13T22:16:15.163Z,5.03
2018-09-13T22:18:43.232Z,4.50
2018-09-13T22:21:11.314Z,4.70
2018-09-13T22:23:39.385Z,4.20
2018-09-13T22:26:07.496Z,4.30
2018-09-13T22:28:35.726Z,4.40
2018-09-13T22:31:03.865Z,3.93
2018-09-13T22:33:31.977Z,4.20
2018-09-13T22:36:00.085Z,3.80
2018-09-13T22:38:28.222Z,3.90
2018-09-13T22:40:56.564Z,3.50
2018-09-13T22:43:26.209Z,3.30
2018-09-13T22:45:54.304Z,3.60
2018-09-13T22:48:22.390Z,3.63
2018-09-13T22:50:50.464Z,3.73
2018-09-13T22:53:18.555Z,3.00
2018-09-13T22:55:46.632Z,3.30
2018-09-13T22:58:14.701Z,3.30
2018-09-13T23:00:42.769Z,3.83
2018-09-13T23:03:10.884Z,3.80
2018-09-13T23:05:38.965Z,3.90
2018-09-13T23:08:07.029Z,3.97
2018-09-13T23:10:35.160Z,4.50
2018-09-13T23:13:03.308Z,4.87
2018-09-13T23:15:31.649Z,4.57
2018-09-13T23:17:59.871Z,4.20
2018-09-13T23:20:27.895Z,4.27
2018-09-13T23:22:55.961Z,4.63
2018-09-13T23:25:24.045Z,4.37
2018-09-13T23:27:52.172Z,4.40
2018-09-13T23:30:20.281Z,4.87
2018-09-13T23:32:48.349Z,4.60
2018-09-13T23:35:16.467Z,4.80
2018-09-13T23:37:44.516Z,4.80
2018-09-13T23:40:13.011Z,4.40
2018-09-13T23:42:41.000Z,4.63
2018-09-13T23:45:09.263Z,4.67
2018-09-13T23:47:37.389Z,4.60
2018-09-13T23:50:05.524Z,4.70
2018-09-13T23:52:33.652Z,4.47
2018-09-13T23:55:01.821Z,4.70
2018-09-13T23:57:29.960Z,4.83
2018-09-13T23:59:58.033Z,4.57
